Hartford, Kansas
Current Conditions -  °F | °C
As of 3:53 PM on Monday 20 Oct 2014 (Local Time) from KEMP Reporting Station
Clear Clear  
Wind Chill: 77°   Ceiling: Unl
Heat Index: 78°   Visibility: 10mi
Dew Point: 44°   Wind: 8mph
Humidity: 31%   Direction: 360°N
Pressure: 30.03"   Gusts: NA
Location:  38.31°N, 95.96°W
Report Text: KEMP 202053Z AUTO 36007KT 10SM CLR 25/07 A3003 RMK AO2 SLP165 T02500067 56011
Loading
Personal Weather Stations






























Interactive Weather Map
Tropical Storm Tracking
New forecast layout! Learn more

10-Day Weather Forecast

Advertisements
Track Severe Weather on mobile